Time;durP1;ratioP1;P1;durP2;ratioP2;P2;SDS_P1;SDS_P2;PMS_P1;PMS_P2;Temp;Humidity;BMP_temperature;BMP_pressure;BME280_temperature;BME280_humidity;BME280_pressure;Samples;Min_cycle;Max_cycle;Signal;HPM_P1;HPM_P2
2023/09/19 00:02:19;;;;;;;8.87;2.80;;;14.60;99.90;;;;;;5075259;28;20047;-69
2023/09/19 00:04:45;;;;;;;14.20;3.13;;;14.60;99.90;;;;;;5075745;28;20090;-69
2023/09/19 00:07:11;;;;;;;10.27;3.67;;;14.50;99.90;;;;;;5075252;28;20048;-69
2023/09/19 00:09:37;;;;;;;13.63;3.53;;;14.50;99.90;;;;;;5075761;28;20053;-69
2023/09/19 00:12:09;;;;;;;16.20;3.80;;;14.50;99.90;;;;;;5074503;28;20127;-69
2023/09/19 00:14:35;;;;;;;15.03;3.43;;;14.40;99.90;;;;;;5075284;28;20036;-69
2023/09/19 00:17:08;;;;;;;13.53;3.20;;;14.40;99.90;;;;;;5074879;28;20535;-69
2023/09/19 00:19:35;;;;;;;13.03;3.50;;;14.40;99.90;;;;;;5075346;28;20088;-69
2023/09/19 00:22:01;;;;;;;11.73;2.47;;;14.50;99.90;;;;;;5075159;28;20053;-69
2023/09/19 00:24:28;;;;;;;12.93;2.87;;;14.40;99.90;;;;;;5074844;28;20119;-69
2023/09/19 00:26:58;;;;;;;17.37;2.83;;;14.40;99.90;;;;;;5074887;28;20419;-69
2023/09/19 00:29:29;;;;;;;14.50;3.00;;;14.30;99.90;;;;;;5074847;28;20049;-69
2023/09/19 00:31:57;;;;;;;13.70;2.77;;;14.30;99.90;;;;;;5074911;28;20501;-69
2023/09/19 00:34:22;;;;;;;10.43;2.23;;;14.30;99.90;;;;;;5074655;28;20047;-69
2023/09/19 00:36:48;;;;;;;14.53;3.80;;;14.30;99.90;;;;;;5075107;28;20056;-69
2023/09/19 00:39:14;;;;;;;11.33;2.50;;;14.30;99.90;;;;;;5074291;28;20048;-69
2023/09/19 00:41:40;;;;;;;11.30;3.50;;;14.30;99.90;;;;;;5074819;28;20046;-69
2023/09/19 00:44:06;;;;;;;12.30;2.13;;;14.20;99.90;;;;;;5074706;28;20041;-69
2023/09/19 00:46:32;;;;;;;9.67;2.43;;;14.30;99.90;;;;;;5074392;28;20131;-69
2023/09/19 00:48:59;;;;;;;11.87;3.00;;;14.20;99.90;;;;;;5074841;28;20401;-69
2023/09/19 00:51:27;;;;;;;8.47;2.87;;;14.20;99.90;;;;;;5073204;28;20048;-69
2023/09/19 00:53:53;;;;;;;13.13;3.07;;;14.10;99.90;;;;;;5074585;28;20051;-69
2023/09/19 00:56:20;;;;;;;11.53;2.63;;;14.10;99.90;;;;;;5072564;28;20496;-69
2023/09/19 00:58:47;;;;;;;12.97;2.37;;;14.10;99.90;;;;;;5074488;28;20052;-69
2023/09/19 01:01:16;;;;;;;9.33;2.27;;;14.00;99.90;;;;;;5074135;28;20044;-69
2023/09/19 01:03:43;;;;;;;8.33;2.40;;;14.00;99.90;;;;;;5074264;28;20482;-69
2023/09/19 01:06:09;;;;;;;9.80;2.87;;;14.00;99.90;;;;;;5073092;28;20495;-69
2023/09/19 01:08:36;;;;;;;10.83;2.83;;;14.00;99.90;;;;;;5074092;28;20048;-69
2023/09/19 01:11:35;;;;;;;7.97;2.37;;;13.90;99.90;;;;;;5073095;28;20128;-69
2023/09/19 01:14:11;;;;;;;9.93;2.73;;;14.00;99.90;;;;;;5074178;28;20048;-69
2023/09/19 01:16:53;;;;;;;9.67;3.23;;;14.00;99.90;;;;;;5072766;28;20048;-69
2023/09/19 01:19:56;;;;;;;8.93;2.40;;;14.00;99.90;;;;;;5072956;28;20135;-69
2023/09/19 01:22:25;;;;;;;10.57;2.37;;;13.90;99.90;;;;;;5073428;28;20504;-69
2023/09/19 01:25:18;;;;;;;9.77;2.50;;;13.90;99.90;;;;;;5072715;28;20044;-69
2023/09/19 01:28:04;;;;;;;11.97;3.07;;;13.80;99.90;;;;;;5073632;28;20397;-69
2023/09/19 01:30:36;;;;;;;10.13;2.67;;;13.80;99.90;;;;;;5073648;28;20040;-69
2023/09/19 01:33:03;;;;;;;9.63;2.90;;;13.80;99.90;;;;;;5073841;28;20084;-69
2023/09/19 01:35:29;;;;;;;11.53;2.80;;;13.80;99.90;;;;;;5073476;28;20051;-69
2023/09/19 01:37:55;;;;;;;10.70;2.23;;;13.80;99.90;;;;;;5073727;28;20392;-69
2023/09/19 01:40:23;;;;;;;9.93;3.07;;;13.80;99.90;;;;;;5072951;28;20048;-69
2023/09/19 01:43:11;;;;;;;11.63;2.60;;;13.80;99.90;;;;;;5073644;28;20067;-69
2023/09/19 01:45:45;;;;;;;15.00;2.63;;;13.80;99.90;;;;;;5072192;28;20044;-69
2023/09/19 01:48:18;;;;;;;8.52;3.13;;;13.80;99.90;;;;;;5073739;28;20070;-69
2023/09/19 01:50:56;;;;;;;10.90;2.60;;;13.70;99.90;;;;;;5073233;28;20504;-69
2023/09/19 01:53:24;;;;;;;14.17;3.30;;;13.70;99.90;;;;;;5073311;28;20048;-69
2023/09/19 01:55:52;;;;;;;9.77;2.10;;;13.70;99.90;;;;;;5073262;28;20103;-69
2023/09/19 01:58:56;;;;;;;14.93;2.90;;;13.70;99.90;;;;;;5073438;28;20201;-69
2023/09/19 02:01:24;;;;;;;11.60;2.60;;;13.70;99.90;;;;;;5071570;28;20105;-70
2023/09/19 02:03:50;;;;;;;12.50;2.60;;;13.70;99.90;;;;;;5073232;28;20120;-69
2023/09/19 02:06:17;;;;;;;10.60;2.50;;;13.70;99.90;;;;;;5073229;28;20084;-69
2023/09/19 02:08:45;;;;;;;13.23;3.03;;;13.70;99.90;;;;;;5071962;28;20060;-69
2023/09/19 02:11:12;;;;;;;11.27;2.93;;;13.70;99.90;;;;;;5073300;28;20041;-69
2023/09/19 02:13:38;;;;;;;12.17;2.73;;;13.70;99.90;;;;;;5072974;28;20458;-69
2023/09/19 02:16:04;;;;;;;10.97;2.40;;;13.70;99.90;;;;;;5073165;28;20124;-69
2023/09/19 02:18:30;;;;;;;13.73;3.37;;;13.70;99.90;;;;;;5072538;28;20041;-69
2023/09/19 02:20:58;;;;;;;14.17;2.73;;;13.70;99.90;;;;;;5073131;28;20080;-69
2023/09/19 02:23:25;;;;;;;9.07;2.33;;;13.70;99.90;;;;;;5072971;28;20052;-69
2023/09/19 02:25:54;;;;;;;10.00;2.80;;;13.60;99.90;;;;;;5073039;28;20053;-69
2023/09/19 02:28:20;;;;;;;9.30;2.20;;;13.60;99.90;;;;;;5072041;28;20044;-69
2023/09/19 02:30:50;;;;;;;9.10;2.23;;;13.60;99.90;;;;;;5071534;28;20048;-69
2023/09/19 02:33:17;;;;;;;11.63;2.33;;;13.70;99.90;;;;;;5071964;28;20131;-69
2023/09/19 02:35:42;;;;;;;8.60;2.17;;;13.70;99.90;;;;;;5072640;28;20047;-69
2023/09/19 02:38:11;;;;;;;8.50;2.10;;;13.70;99.90;;;;;;5071699;28;20049;-69
2023/09/19 02:40:37;;;;;;;10.53;2.50;;;13.70;99.90;;;;;;5072686;28;20056;-69
2023/09/19 02:43:03;;;;;;;9.53;2.87;;;13.70;99.90;;;;;;5055204;28;20048;-69
2023/09/19 02:45:30;;;;;;;11.70;2.63;;;13.70;99.90;;;;;;5071014;28;20098;-69
2023/09/19 02:47:56;;;;;;;9.57;2.30;;;13.80;99.90;;;;;;5072797;28;20045;-69
2023/09/19 02:50:23;;;;;;;11.17;2.60;;;13.80;99.90;;;;;;5072742;28;20095;-68
2023/09/19 02:52:49;;;;;;;12.30;2.60;;;13.80;99.90;;;;;;5075608;28;20084;-69
2023/09/19 02:55:19;;;;;;;8.77;3.33;;;13.80;99.90;;;;;;5076854;28;20149;-69
2023/09/19 02:57:48;;;;;;;11.47;2.50;;;13.80;99.90;;;;;;5076698;28;20056;-69
2023/09/19 03:00:15;;;;;;;12.37;2.43;;;13.80;99.90;;;;;;5077002;28;20447;-69
2023/09/19 03:02:41;;;;;;;7.57;2.20;;;13.80;99.90;;;;;;5076486;28;20052;-69
2023/09/19 03:05:07;;;;;;;7.77;2.07;;;13.80;99.90;;;;;;5076581;28;20124;-69
2023/09/19 03:07:33;;;;;;;14.13;2.57;;;13.70;99.90;;;;;;5076411;28;20090;-69
2023/09/19 03:09:59;;;;;;;8.47;2.27;;;13.70;99.90;;;;;;5076841;28;20059;-69
2023/09/19 03:12:26;;;;;;;8.43;2.60;;;13.70;99.90;;;;;;5076539;28;20048;-69
2023/09/19 03:14:52;;;;;;;9.83;2.30;;;13.70;99.90;;;;;;5076217;28;20417;-69
2023/09/19 03:17:19;;;;;;;11.13;2.60;;;13.60;99.90;;;;;;5076424;28;20052;-69
2023/09/19 03:19:47;;;;;;;10.53;2.23;;;13.60;99.90;;;;;;5076110;28;20396;-69
2023/09/19 03:22:14;;;;;;;8.97;2.03;;;13.60;99.90;;;;;;5076295;28;20553;-69
2023/09/19 03:24:39;;;;;;;12.97;2.40;;;13.60;99.90;;;;;;5076009;28;20044;-69
2023/09/19 03:27:05;;;;;;;8.07;2.40;;;13.60;99.90;;;;;;5074725;28;20404;-69
2023/09/19 03:29:31;;;;;;;16.27;3.33;;;13.60;99.90;;;;;;5076212;28;20053;-69
2023/09/19 03:31:56;;;;;;;10.27;2.60;;;13.60;99.90;;;;;;5075904;28;20053;-69
2023/09/19 03:34:22;;;;;;;15.83;3.10;;;13.60;99.90;;;;;;5076293;28;20381;-69
2023/09/19 03:36:48;;;;;;;7.60;2.13;;;13.60;99.90;;;;;;5075821;28;20138;-69
2023/09/19 03:39:15;;;;;;;8.63;2.67;;;13.60;99.90;;;;;;5075883;28;20476;-69
2023/09/19 03:41:41;;;;;;;12.73;2.47;;;13.70;99.90;;;;;;5075413;28;20497;-69
2023/09/19 03:44:07;;;;;;;9.60;2.70;;;13.70;99.90;;;;;;5076163;28;20113;-69
2023/09/19 03:46:35;;;;;;;8.77;2.13;;;13.70;99.90;;;;;;5075883;28;20450;-69
2023/09/19 03:49:01;;;;;;;13.33;2.83;;;13.70;99.90;;;;;;5075221;28;20400;-69
2023/09/19 03:51:26;;;;;;;11.83;3.07;;;13.80;99.90;;;;;;5075786;28;20045;-69
2023/09/19 03:53:52;;;;;;;12.03;2.33;;;13.80;99.90;;;;;;5057890;28;20139;-69
2023/09/19 03:56:18;;;;;;;9.83;2.10;;;13.80;99.90;;;;;;5074357;28;20405;-68
2023/09/19 03:58:44;;;;;;;14.03;2.20;;;13.80;99.90;;;;;;5075384;28;20052;-69
2023/09/19 04:01:10;;;;;;;11.67;3.43;;;13.70;99.90;;;;;;5075571;28;20044;-69
2023/09/19 04:03:46;;;;;;;12.07;2.60;;;13.70;99.90;;;;;;5075020;28;20054;-68
2023/09/19 04:06:16;;;;;;;10.60;2.23;;;13.70;99.90;;;;;;5074506;28;20070;-69
2023/09/19 04:08:43;;;;;;;15.60;2.30;;;13.70;99.90;;;;;;5075191;28;20493;-69
2023/09/19 04:11:09;;;;;;;16.60;2.60;;;13.70;99.90;;;;;;5074437;28;20048;-69
2023/09/19 04:13:36;;;;;;;11.87;2.73;;;13.70;99.90;;;;;;5075398;28;20041;-69
2023/09/19 04:16:03;;;;;;;10.97;2.33;;;13.80;99.90;;;;;;5075101;28;20051;-69
2023/09/19 04:18:37;;;;;;;12.80;2.60;;;13.80;99.90;;;;;;5075454;28;20049;-69
2023/09/19 04:21:04;;;;;;;8.07;2.07;;;13.80;99.90;;;;;;5075030;28;20045;-68
2023/09/19 04:23:30;;;;;;;12.40;2.47;;;13.80;99.90;;;;;;5075198;28;20118;-68
2023/09/19 04:25:55;;;;;;;11.07;2.17;;;13.80;99.90;;;;;;5074936;28;20044;-69
2023/09/19 04:28:21;;;;;;;9.93;2.30;;;13.80;99.90;;;;;;5074169;28;20118;-68
2023/09/19 04:30:47;;;;;;;8.87;2.00;;;13.80;99.90;;;;;;5074927;28;20055;-69
2023/09/19 04:33:17;;;;;;;9.40;2.33;;;13.80;99.90;;;;;;5075030;28;20090;-69
2023/09/19 04:35:42;;;;;;;12.37;2.80;;;13.80;99.90;;;;;;5074860;28;20052;-69
2023/09/19 04:38:09;;;;;;;8.60;2.87;;;13.80;99.90;;;;;;5075184;28;20057;-69
2023/09/19 04:40:35;;;;;;;9.67;2.37;;;13.80;99.90;;;;;;5074924;28;20145;-69
2023/09/19 04:43:01;;;;;;;11.13;2.10;;;13.80;99.90;;;;;;5074500;28;20048;-69
2023/09/19 04:45:27;;;;;;;10.60;2.90;;;13.80;99.90;;;;;;5074787;28;20105;-69
2023/09/19 04:47:54;;;;;;;10.27;2.47;;;13.90;99.90;;;;;;5074439;28;20044;-69
2023/09/19 04:50:21;;;;;;;13.03;2.33;;;13.90;99.90;;;;;;5074765;28;20377;-69
2023/09/19 04:52:50;;;;;;;12.50;2.53;;;13.90;99.90;;;;;;5074357;28;20105;-69
2023/09/19 04:55:19;;;;;;;8.07;2.40;;;13.90;99.90;;;;;;5074575;28;20080;-68
2023/09/19 04:57:50;;;;;;;14.33;3.40;;;13.90;99.90;;;;;;5074418;28;20049;-70
2023/09/19 05:00:18;;;;;;;15.13;3.00;;;13.90;99.90;;;;;;5073672;28;20431;-68
2023/09/19 05:02:49;;;;;;;12.90;3.00;;;13.90;99.90;;;;;;5074515;28;20048;-68
2023/09/19 05:05:16;;;;;;;12.27;2.83;;;14.00;99.90;;;;;;5074687;28;20037;-68
2023/09/19 05:07:42;;;;;;;8.63;2.53;;;14.00;99.90;;;;;;5074288;28;20049;-68
2023/09/19 05:10:09;;;;;;;12.57;2.47;;;14.00;99.90;;;;;;5073948;28;20052;-69
2023/09/19 05:12:35;;;;;;;12.80;2.23;;;14.00;99.90;;;;;;5073096;28;20050;-68
2023/09/19 05:15:08;;;;;;;14.00;2.83;;;14.00;99.90;;;;;;5072036;28;20463;-68
2023/09/19 05:17:35;;;;;;;15.63;3.10;;;14.10;99.90;;;;;;5074101;28;20048;-68
2023/09/19 05:20:15;;;;;;;9.90;2.43;;;14.10;99.90;;;;;;5072619;28;20040;-69
2023/09/19 05:22:46;;;;;;;9.97;2.70;;;14.10;99.90;;;;;;5073844;28;20504;-68
2023/09/19 05:25:16;;;;;;;12.17;3.00;;;14.10;99.90;;;;;;5072485;28;20055;-68
2023/09/19 05:27:43;;;;;;;12.20;2.50;;;14.10;99.90;;;;;;5073975;28;20129;-68
2023/09/19 05:30:09;;;;;;;10.23;2.50;;;14.10;99.90;;;;;;5073613;28;20056;-69
2023/09/19 05:32:35;;;;;;;13.00;2.80;;;14.10;99.90;;;;;;5072921;28;20123;-69
2023/09/19 05:35:01;;;;;;;8.30;2.43;;;14.10;99.90;;;;;;5073553;28;20131;-69
2023/09/19 05:37:26;;;;;;;13.23;2.80;;;14.10;99.90;;;;;;5073771;28;20365;-69
2023/09/19 05:39:53;;;;;;;12.53;3.10;;;14.20;99.90;;;;;;5073473;28;20547;-69
2023/09/19 05:42:19;;;;;;;11.00;2.60;;;14.20;99.90;;;;;;5072186;28;20059;-68
2023/09/19 05:44:45;;;;;;;6.80;2.23;;;14.20;99.90;;;;;;5073541;28;20037;-68
2023/09/19 05:47:10;;;;;;;11.10;2.60;;;14.20;99.90;;;;;;5073302;28;20063;-69
2023/09/19 05:49:39;;;;;;;11.70;2.67;;;14.20;99.90;;;;;;5073594;28;20067;-68
2023/09/19 05:52:06;;;;;;;10.47;2.20;;;14.30;99.90;;;;;;5073232;28;20040;-69
2023/09/19 05:54:34;;;;;;;11.93;2.63;;;14.30;99.90;;;;;;5073625;28;20044;-68
2023/09/19 05:57:01;;;;;;;12.77;2.83;;;14.30;99.90;;;;;;5072968;28;20140;-69
2023/09/19 05:59:27;;;;;;;9.70;2.30;;;14.30;99.90;;;;;;5073593;28;20121;-68
2023/09/19 06:01:53;;;;;;;16.87;3.90;;;14.30;99.90;;;;;;5072284;28;20088;-68
2023/09/19 06:04:19;;;;;;;14.20;3.27;;;14.30;99.90;;;;;;5072899;28;20091;-68
2023/09/19 06:06:48;;;;;;;16.47;3.03;;;14.40;99.90;;;;;;5073312;28;20084;-68
2023/09/19 06:09:14;;;;;;;9.37;2.43;;;14.40;99.90;;;;;;5072983;28;20404;-68
2023/09/19 06:11:43;;;;;;;12.97;2.83;;;14.50;99.90;;;;;;5073389;28;20071;-68
2023/09/19 06:14:10;;;;;;;10.23;2.60;;;14.50;99.90;;;;;;5072887;28;20123;-68
2023/09/19 06:16:38;;;;;;;17.87;2.87;;;14.60;99.90;;;;;;5073149;28;20110;-68
2023/09/19 06:19:06;;;;;;;11.93;2.73;;;14.70;99.90;;;;;;5071630;28;20048;-68
2023/09/19 06:21:32;;;;;;;12.90;3.00;;;14.70;99.90;;;;;;5072967;28;20044;-68
2023/09/19 06:23:59;;;;;;;11.60;2.33;;;14.80;99.90;;;;;;5072553;28;20051;-70
2023/09/19 06:26:26;;;;;;;13.53;2.83;;;14.80;99.90;;;;;;5072909;28;20084;-68
2023/09/19 06:28:52;;;;;;;11.73;2.90;;;14.80;99.90;;;;;;5072922;28;20052;-68
2023/09/19 06:31:18;;;;;;;10.53;2.53;;;14.90;99.90;;;;;;5072633;28;20566;-68
2023/09/19 06:33:44;;;;;;;10.47;2.40;;;14.90;99.90;;;;;;5071876;28;20048;-68
2023/09/19 06:36:11;;;;;;;10.70;2.57;;;14.90;99.90;;;;;;5072665;28;20177;-69
2023/09/19 06:38:39;;;;;;;11.33;2.70;;;15.00;99.90;;;;;;5072736;28;20059;-68
2023/09/19 06:41:05;;;;;;;12.70;2.40;;;15.10;99.90;;;;;;5072559;28;20045;-69
2023/09/19 06:43:32;;;;;;;14.87;3.13;;;15.30;99.90;;;;;;5073033;28;20052;-69
2023/09/19 06:45:59;;;;;;;11.30;2.67;;;15.50;99.90;;;;;;5072743;28;20055;-68
2023/09/19 06:48:26;;;;;;;14.50;3.37;;;15.70;99.90;;;;;;5072552;28;20052;-68
2023/09/19 06:50:54;;;;;;;12.00;2.63;;;16.30;99.90;;;;;;5073063;28;20045;-68
2023/09/19 06:53:20;;;;;;;12.80;2.90;;;16.90;99.90;;;;;;5072469;28;20075;-68
2023/09/19 06:55:47;;;;;;;8.83;2.50;;;17.10;99.90;;;;;;5072748;28;20404;-68
2023/09/19 06:58:13;;;;;;;14.47;2.97;;;17.20;99.90;;;;;;5072579;28;20437;-69
2023/09/19 07:00:39;;;;;;;8.00;2.70;;;17.50;99.90;;;;;;5072665;28;20103;-68
2023/09/19 07:03:11;;;;;;;10.00;2.43;;;18.00;99.90;;;;;;5072089;28;20083;-69
2023/09/19 07:05:39;;;;;;;10.07;2.90;;;18.50;99.90;;;;;;5072665;28;20063;-69
2023/09/19 07:08:06;;;;;;;11.17;2.27;;;19.10;99.90;;;;;;5072410;28;20396;-70
2023/09/19 07:10:33;;;;;;;15.37;3.73;;;19.50;99.90;;;;;;5072475;28;20477;-69
2023/09/19 07:13:03;;;;;;;12.57;2.93;;;19.90;99.90;;;;;;5072630;28;20057;-69
2023/09/19 07:15:33;;;;;;;13.70;2.70;;;20.40;99.90;;;;;;5072261;28;20052;-69
2023/09/19 07:18:00;;;;;;;11.27;2.53;;;20.60;99.90;;;;;;5072588;28;20048;-68
2023/09/19 07:20:27;;;;;;;13.03;2.67;;;20.60;99.90;;;;;;5072188;28;20053;-69
2023/09/19 07:22:54;;;;;;;12.70;2.70;;;20.20;99.90;;;;;;5072394;28;20093;-69
2023/09/19 07:25:21;;;;;;;11.83;2.57;;;19.90;99.90;;;;;;5070908;28;20052;-69
2023/09/19 07:27:47;;;;;;;10.03;2.43;;;19.60;99.90;;;;;;5072136;28;20484;-68
2023/09/19 07:30:13;;;;;;;11.03;3.33;;;19.50;99.90;;;;;;5071828;28;20048;-66
2023/09/19 07:32:40;;;;;;;10.10;2.93;;;19.50;99.90;;;;;;5072365;28;20044;-69
2023/09/19 07:35:06;;;;;;;10.23;3.07;;;19.40;99.90;;;;;;5072463;28;20177;-69
2023/09/19 07:37:33;;;;;;;11.97;3.03;;;19.20;99.90;;;;;;5072905;28;20127;-71
2023/09/19 07:40:00;;;;;;;11.50;2.70;;;18.90;99.90;;;;;;5075997;28;20053;-70
2023/09/19 07:42:27;;;;;;;12.07;2.83;;;18.80;99.90;;;;;;5075682;28;20055;-70
2023/09/19 07:44:53;;;;;;;11.30;2.53;;;18.70;99.90;;;;;;5075981;28;20064;-70
2023/09/19 07:47:23;;;;;;;10.57;2.70;;;18.60;99.90;;;;;;5075594;28;20051;-70
2023/09/19 07:49:49;;;;;;;8.70;2.47;;;18.50;99.90;;;;;;5075793;28;20052;-70
2023/09/19 07:52:15;;;;;;;10.77;2.70;;;18.40;99.90;;;;;;5074531;28;20044;-71
2023/09/19 07:54:43;;;;;;;10.47;2.63;;;18.30;99.90;;;;;;5075742;28;20061;-70
2023/09/19 07:57:11;;;;;;;14.27;3.13;;;18.20;99.90;;;;;;5075314;28;20068;-70
2023/09/19 07:59:38;;;;;;;9.80;3.00;;;18.00;99.90;;;;;;5075666;28;20048;-70
2023/09/19 08:02:04;;;;;;;14.27;3.13;;;17.80;99.90;;;;;;5075421;28;20086;-69
2023/09/19 08:04:32;;;;;;;10.03;2.53;;;17.70;99.90;;;;;;5075218;28;20140;-70
2023/09/19 08:07:00;;;;;;;11.43;2.97;;;17.60;99.90;;;;;;5075657;28;20040;-70
2023/09/19 08:09:27;;;;;;;10.67;2.40;;;17.40;99.90;;;;;;5075181;28;20516;-70
2023/09/19 08:11:53;;;;;;;17.70;3.50;;;17.30;99.90;;;;;;5075464;28;20396;-70
2023/09/19 08:14:19;;;;;;;12.23;3.10;;;17.20;99.90;;;;;;5074182;28;20131;-71
2023/09/19 08:16:44;;;;;;;9.97;3.20;;;17.20;99.90;;;;;;5057881;28;20062;-71
2023/09/19 08:19:10;;;;;;;11.47;2.60;;;17.20;99.90;;;;;;5074246;28;20503;-70
2023/09/19 08:21:36;;;;;;;13.00;3.67;;;17.30;99.90;;;;;;5074994;28;20392;-70
2023/09/19 08:24:04;;;;;;;15.63;3.23;;;17.30;99.90;;;;;;5074183;28;20178;-70
2023/09/19 08:26:30;;;;;;;11.40;2.67;;;17.30;99.90;;;;;;5075179;28;20105;-71
2023/09/19 08:28:56;;;;;;;10.73;3.13;;;17.40;99.90;;;;;;5073917;28;20055;-70
2023/09/19 08:31:23;;;;;;;11.70;2.60;;;17.40;99.90;;;;;;5074757;28;20127;-71
2023/09/19 08:33:51;;;;;;;11.87;2.93;;;17.40;99.90;;;;;;5074026;28;20048;-70
2023/09/19 08:36:17;;;;;;;12.43;3.47;;;17.50;99.90;;;;;;5074704;28;20044;-71
2023/09/19 08:38:42;;;;;;;13.73;3.07;;;17.50;99.90;;;;;;5074814;28;20477;-70
2023/09/19 08:41:08;;;;;;;12.50;2.87;;;17.50;99.90;;;;;;5074901;28;20050;-71
2023/09/19 08:43:35;;;;;;;11.20;2.80;;;17.60;99.90;;;;;;5074591;28;20045;-70
2023/09/19 08:46:06;;;;;;;17.03;3.00;;;17.60;99.90;;;;;;5074939;28;20092;-70
2023/09/19 08:48:34;;;;;;;10.43;2.23;;;17.60;99.90;;;;;;5074451;28;20045;-71
2023/09/19 08:51:41;;;;;;;11.83;2.77;;;17.60;99.90;;;;;;5073541;28;20040;-70
2023/09/19 08:54:07;;;;;;;14.73;3.23;;;17.70;99.90;;;;;;5073757;28;20404;-70
2023/09/19 08:56:34;;;;;;;14.00;3.07;;;17.80;99.90;;;;;;5074197;28;20059;-65
2023/09/19 08:59:03;;;;;;;12.23;3.83;;;17.90;99.90;;;;;;5074358;28;20053;-70
2023/09/19 09:01:32;;;;;;;12.10;3.03;;;17.90;99.90;;;;;;5073803;28;20082;-68
2023/09/19 09:03:58;;;;;;;11.20;2.50;;;17.90;99.90;;;;;;5078942;28;20041;-68
2023/09/19 09:06:25;;;;;;;10.73;2.70;;;17.90;99.90;;;;;;5073644;28;20108;-68
2023/09/19 09:08:52;;;;;;;13.13;3.67;;;17.80;99.90;;;;;;5072684;28;20048;-67
2023/09/19 09:11:18;;;;;;;10.40;2.90;;;17.90;99.90;;;;;;5073783;28;20070;-68
2023/09/19 09:13:45;;;;;;;10.13;3.43;;;17.90;99.90;;;;;;5073962;28;20044;-67
2023/09/19 09:16:12;;;;;;;11.17;2.93;;;18.00;99.90;;;;;;5074181;28;20503;-70
2023/09/19 09:18:38;;;;;;;11.27;3.43;;;18.00;99.90;;;;;;5074162;28;20048;-72
2023/09/19 09:21:04;;;;;;;15.23;3.33;;;18.00;99.90;;;;;;5073536;28;20500;-72
2023/09/19 09:23:31;;;;;;;17.07;3.93;;;17.90;99.90;;;;;;5072499;28;20041;-71
2023/09/19 09:25:59;;;;;;;12.93;3.33;;;18.00;99.90;;;;;;5072580;28;20477;-71
2023/09/19 09:28:27;;;;;;;10.10;2.83;;;18.10;99.90;;;;;;5073779;28;20052;-72
2023/09/19 09:30:54;;;;;;;12.93;2.90;;;18.10;99.90;;;;;;5073939;28;20059;-71
2023/09/19 09:33:21;;;;;;;12.37;3.00;;;18.20;99.90;;;;;;5073039;28;20366;-71
2023/09/19 09:35:53;;;;;;;13.63;3.70;;;18.20;99.90;;;;;;5073443;28;20037;-71
2023/09/19 09:38:27;;;;;;;12.07;2.93;;;18.10;99.90;;;;;;5073554;28;20144;-71
2023/09/19 09:41:06;;;;;;;14.10;2.85;;;18.10;99.90;;;;;;5073769;28;20045;-71
2023/09/19 09:43:38;;;;;;;13.33;3.73;;;18.00;99.90;;;;;;5072416;28;20059;-71
2023/09/19 09:46:58;;;;;;;13.67;3.70;;;18.10;99.90;;;;;;5055603;28;20094;-71
2023/09/19 09:49:19;;;;;;;18.53;4.43;;;18.10;99.90;;;;;;5073336;28;20450;-71
2023/09/19 09:51:59;;;;;;;13.47;4.07;;;18.00;99.90;;;;;;5055639;28;20060;-71
2023/09/19 09:54:38;;;;;;;10.47;3.43;;;17.90;99.90;;;;;;5072341;28;20033;-73
2023/09/19 09:57:16;;;;;;;11.57;2.97;;;17.90;99.90;;;;;;5073430;28;20058;-71
2023/09/19 09:59:53;;;;;;;19.03;3.23;;;17.90;99.90;;;;;;5072909;28;20067;-71
2023/09/19 10:02:25;;;;;;;12.77;3.30;;;17.90;99.90;;;;;;5073177;28;20060;-71
2023/09/19 10:07:32;;;;;;;14.97;3.00;;;17.90;99.90;;;;;;5072979;28;20052;-72
2023/09/19 10:10:21;;;;;;;17.30;4.47;;;18.00;99.90;;;;;;5073142;28;20117;-72
2023/09/19 10:12:48;;;;;;;12.90;3.33;;;18.10;99.90;;;;;;5071923;28;20920;-71
2023/09/19 10:15:17;;;;;;;14.80;3.43;;;18.10;99.90;;;;;;5073035;28;20038;-71
2023/09/19 10:17:45;;;;;;;13.27;3.63;;;18.30;99.90;;;;;;5072533;28;20484;-71
2023/09/19 10:20:33;;;;;;;11.00;3.03;;;18.30;99.90;;;;;;5071774;28;20515;-69
2023/09/19 10:23:12;;;;;;;19.03;4.17;;;18.40;99.90;;;;;;5071402;28;20079;-74
2023/09/19 10:25:40;;;;;;;14.63;3.63;;;18.40;99.90;;;;;;5072559;28;20040;-71
2023/09/19 10:28:11;;;;;;;13.53;3.63;;;18.40;99.90;;;;;;5072521;28;20045;-71
2023/09/19 10:30:43;;;;;;;15.00;3.50;;;18.40;99.90;;;;;;5072509;28;20044;-71
2023/09/19 10:33:12;;;;;;;13.17;3.57;;;18.30;99.90;;;;;;5071863;28;20048;-71
2023/09/19 10:35:48;;;;;;;16.00;3.47;;;18.30;99.90;;;;;;5071547;28;20036;-71
2023/09/19 10:38:18;;;;;;;12.13;3.53;;;18.20;99.90;;;;;;5072604;28;20041;-71
2023/09/19 10:40:48;;;;;;;12.70;3.13;;;18.20;99.90;;;;;;5072489;28;20142;-72
2023/09/19 10:43:20;;;;;;;14.67;3.63;;;18.30;99.90;;;;;;5071326;28;20090;-68
2023/09/19 10:45:49;;;;;;;14.37;3.13;;;18.30;99.90;;;;;;5072402;28;20068;-69
2023/09/19 10:48:25;;;;;;;14.10;3.50;;;18.30;99.90;;;;;;5072567;28;20056;-70
2023/09/19 10:50:59;;;;;;;15.03;3.50;;;18.20;99.90;;;;;;5072279;28;20105;-67
2023/09/19 10:53:27;;;;;;;17.85;4.75;;;18.00;99.90;;;;;;5072820;28;20044;-66
2023/09/19 10:55:57;;;;;;;11.80;3.33;;;18.00;99.90;;;;;;5071023;28;20423;-68
2023/09/19 10:58:38;;;;;;;17.27;3.87;;;18.00;99.90;;;;;;5072122;28;20496;-68
2023/09/19 11:01:14;;;;;;;12.27;3.50;;;18.00;99.90;;;;;;5071594;28;20499;-68
2023/09/19 11:03:44;;;;;;;11.83;2.90;;;17.90;99.90;;;;;;5072274;28;20392;-68
2023/09/19 11:06:18;;;;;;;12.30;3.50;;;17.90;99.90;;;;;;5071340;28;20088;-68
2023/09/19 11:08:58;;;;;;;10.68;3.05;;;17.90;99.90;;;;;;5072261;28;20082;-68
2023/09/19 11:11:39;;;;;;;15.47;3.57;;;17.90;99.90;;;;;;5072261;28;20052;-68
2023/09/19 11:14:24;;;;;;;14.43;4.67;;;18.00;99.90;;;;;;5074667;28;20052;-68
2023/09/19 11:17:11;;;;;;;12.93;3.67;;;18.10;99.90;;;;;;5075860;28;20526;-69
2023/09/19 11:20:15;;;;;;;17.77;4.10;;;18.20;99.90;;;;;;5075873;28;20098;-68
2023/09/19 11:22:50;;;;;;;13.20;3.20;;;18.30;99.90;;;;;;5076050;28;20052;-68
2023/09/19 11:25:37;;;;;;;12.87;3.40;;;18.40;99.90;;;;;;5075929;28;20084;-68
2023/09/19 11:28:05;;;;;;;14.53;3.27;;;18.40;99.90;;;;;;5076228;28;20075;-68
2023/09/19 11:30:32;;;;;;;11.77;3.13;;;18.40;99.90;;;;;;5076001;28;20063;-69
2023/09/19 11:33:22;;;;;;;13.40;3.50;;;18.50;99.90;;;;;;5075640;28;20059;-69
2023/09/19 11:36:08;;;;;;;12.80;3.60;;;18.60;99.90;;;;;;5074787;28;20291;-70
2023/09/19 11:38:45;;;;;;;15.20;3.85;;;18.60;99.90;;;;;;5075895;28;20106;-71
2023/09/19 11:41:20;;;;;;;17.40;3.67;;;18.60;99.90;;;;;;5074527;28;20044;-70
2023/09/19 11:43:50;;;;;;;11.30;3.17;;;18.50;99.90;;;;;;5075571;28;20516;-70
2023/09/19 11:46:21;;;;;;;15.87;4.17;;;18.40;99.90;;;;;;5076096;28;20079;-68
2023/09/19 11:48:51;;;;;;;20.63;4.27;;;18.30;99.90;;;;;;5075676;28;20123;-68
2023/09/19 11:51:23;;;;;;;13.63;3.80;;;18.30;99.90;;;;;;5074687;28;20045;-67
2023/09/19 11:53:57;;;;;;;12.03;3.20;;;18.20;99.90;;;;;;5075192;28;20060;-67
2023/09/19 11:56:31;;;;;;;13.73;3.50;;;18.20;99.90;;;;;;5075767;28;20156;-67
2023/09/19 11:58:59;;;;;;;13.07;3.50;;;18.20;99.90;;;;;;5075444;28;20131;-69
2023/09/19 12:01:31;;;;;;;10.80;3.23;;;18.20;99.90;;;;;;5075365;28;20045;-69
2023/09/19 12:04:00;;;;;;;16.90;3.27;;;18.20;99.90;;;;;;5073865;28;20049;-68
2023/09/19 12:06:26;;;;;;;14.27;3.47;;;18.10;99.90;;;;;;5074361;28;20048;-67
2023/09/19 12:08:57;;;;;;;12.20;3.07;;;18.00;99.90;;;;;;5074971;28;20044;-68
2023/09/19 12:11:24;;;;;;;12.17;3.13;;;17.90;99.90;;;;;;5075656;28;20102;-68
2023/09/19 12:13:53;;;;;;;12.23;3.13;;;17.90;99.90;;;;;;5074974;28;20131;-68
2023/09/19 12:16:22;;;;;;;14.57;3.30;;;17.70;99.90;;;;;;5075186;28;20198;-69
2023/09/19 12:18:50;;;;;;;13.23;3.13;;;17.60;99.90;;;;;;5073738;28;20621;-68
2023/09/19 12:21:36;;;;;;;11.20;2.97;;;17.60;99.90;;;;;;5075223;28;20040;-67
2023/09/19 12:24:14;;;;;;;13.90;3.73;;;17.60;99.90;;;;;;5074566;28;20320;-68
2023/09/19 12:26:42;;;;;;;12.77;3.43;;;17.70;99.90;;;;;;5075258;28;20040;-68
2023/09/19 12:29:26;;;;;;;14.23;2.97;;;17.70;99.90;;;;;;5075073;28;20051;-68
2023/09/19 12:31:57;;;;;;;14.63;3.50;;;17.90;99.90;;;;;;5074890;28;20056;-67
2023/09/19 12:34:27;;;;;;;11.80;2.70;;;17.90;99.90;;;;;;5074933;28;20469;-69
2023/09/19 12:37:12;;;;;;;12.33;2.53;;;17.90;99.90;;;;;;5074762;28;20217;-70
2023/09/19 12:39:53;;;;;;;10.55;2.40;;;18.00;99.90;;;;;;5073645;28;20050;-70
2023/09/19 12:42:23;;;;;;;8.50;2.37;;;17.90;99.90;;;;;;5072540;28;20055;-67
2023/09/19 12:45:00;;;;;;;14.13;2.93;;;17.90;99.90;;;;;;5074622;28;20051;-68
2023/09/19 12:47:31;;;;;;;13.33;2.90;;;17.90;99.90;;;;;;5075153;28;20044;-68
2023/09/19 12:50:12;;;;;;;11.33;2.60;;;17.90;99.90;;;;;;5074616;28;20052;-68
2023/09/19 12:52:45;;;;;;;10.27;3.00;;;17.90;99.90;;;;;;5074915;28;20063;-69
2023/09/19 12:55:24;;;;;;;12.17;2.60;;;17.90;99.90;;;;;;5074475;28;20234;-68